createdAt,value
2017-11-10T00:00:51.696Z,8.40
2017-11-10T00:03:19.269Z,8.40
2017-11-10T00:05:46.777Z,8.50
2017-11-10T00:08:14.309Z,8.50
2017-11-10T00:10:41.911Z,8.50
2017-11-10T00:13:09.462Z,8.50
2017-11-10T00:15:36.987Z,8.50
2017-11-10T00:18:04.522Z,8.50
2017-11-10T00:20:32.853Z,8.40
2017-11-10T00:23:00.388Z,8.40
2017-11-10T00:25:27.929Z,8.50
2017-11-10T00:27:56.212Z,8.40
2017-11-10T00:30:24.501Z,8.50
2017-11-10T00:32:52.033Z,8.40
2017-11-10T00:35:19.584Z,8.40
2017-11-10T00:37:47.137Z,8.40
2017-11-10T00:40:14.638Z,8.50
2017-11-10T00:42:42.179Z,8.60
2017-11-10T00:45:10.481Z,8.50
2017-11-10T00:47:38.052Z,8.50
2017-11-10T00:50:05.584Z,8.30
2017-11-10T00:52:33.846Z,8.40
2017-11-10T00:55:01.408Z,8.40
2017-11-10T00:57:28.956Z,8.50
2017-11-10T00:59:56.497Z,8.40
2017-11-10T01:02:24.012Z,8.40
2017-11-10T01:04:51.546Z,8.40
2017-11-10T01:07:19.846Z,8.30
2017-11-10T01:09:47.381Z,8.30
2017-11-10T01:12:14.916Z,8.20
2017-11-10T01:14:42.457Z,8.20
2017-11-10T01:17:09.964Z,8.20
2017-11-10T01:19:37.508Z,8.20
2017-11-10T01:22:05.014Z,8.20
2017-11-10T01:24:32.599Z,8.20
2017-11-10T01:27:00.105Z,8.20
2017-11-10T01:29:28.488Z,8.10
2017-11-10T01:31:56.029Z,8.10
2017-11-10T01:34:23.554Z,8.00
2017-11-10T01:36:51.078Z,7.90
2017-11-10T01:39:18.609Z,7.90
2017-11-10T01:41:46.142Z,7.90
2017-11-10T01:44:13.705Z,7.90
2017-11-10T01:46:41.253Z,7.90
2017-11-10T01:49:08.796Z,7.90
2017-11-10T01:51:36.314Z,7.90
2017-11-10T01:54:04.625Z,7.90
2017-11-10T01:56:32.291Z,7.90
2017-11-10T01:58:59.877Z,7.80
2017-11-10T02:01:27.397Z,7.80
2017-11-10T02:03:54.917Z,7.80
2017-11-10T02:06:22.429Z,7.90
2017-11-10T02:08:49.947Z,7.80
2017-11-10T02:11:17.513Z,7.80
2017-11-10T02:13:45.045Z,7.90
2017-11-10T02:16:12.571Z,7.80
2017-11-10T02:18:40.090Z,7.80
2017-11-10T02:21:07.606Z,7.80
2017-11-10T02:23:35.142Z,7.80
2017-11-10T02:26:02.688Z,7.80
2017-11-10T02:28:30.205Z,7.70
2017-11-10T02:30:58.019Z,7.70
2017-11-10T02:33:25.567Z,7.70
2017-11-10T02:35:53.143Z,7.70
2017-11-10T02:38:20.666Z,7.70
2017-11-10T02:40:48.195Z,7.60
2017-11-10T02:43:15.709Z,7.50
2017-11-10T02:45:43.241Z,7.60
2017-11-10T02:48:10.772Z,7.60
2017-11-10T02:50:38.287Z,7.70
2017-11-10T02:53:06.562Z,7.70
2017-11-10T02:55:34.125Z,7.70
2017-11-10T02:58:01.655Z,7.70
2017-11-10T03:00:29.282Z,7.70
2017-11-10T03:02:56.867Z,7.70
2017-11-10T03:05:24.404Z,7.50
2017-11-10T03:07:51.950Z,7.60
2017-11-10T03:10:19.492Z,7.60
2017-11-10T03:12:47.071Z,7.60
2017-11-10T03:15:14.632Z,7.70
2017-11-10T03:17:42.186Z,7.70
2017-11-10T03:20:09.733Z,7.80
2017-11-10T03:22:37.257Z,7.80
2017-11-10T03:25:04.795Z,7.80
2017-11-10T03:27:32.505Z,7.60
2017-11-10T03:30:00.070Z,7.60
2017-11-10T03:32:27.626Z,7.60
2017-11-10T03:34:55.910Z,7.60
2017-11-10T03:37:23.492Z,7.60
2017-11-10T03:39:51.026Z,7.70
2017-11-10T03:42:19.304Z,7.60
2017-11-10T03:44:46.864Z,7.60
2017-11-10T03:47:14.370Z,7.70
2017-11-10T03:49:41.945Z,7.60
2017-11-10T03:52:09.463Z,7.50
2017-11-10T03:54:37.086Z,7.60
2017-11-10T03:57:04.615Z,7.70
2017-11-10T03:59:32.896Z,7.60
2017-11-10T04:02:00.410Z,7.60
2017-11-10T04:04:27.964Z,7.70
2017-11-10T04:06:55.535Z,7.70
2017-11-10T04:09:23.052Z,7.70
2017-11-10T04:11:50.593Z,7.70
2017-11-10T04:14:18.141Z,7.70
2017-11-10T04:16:45.669Z,7.60
2017-11-10T04:19:13.513Z,7.60
2017-11-10T04:21:41.067Z,7.60
2017-11-10T04:24:08.636Z,7.50
2017-11-10T04:26:36.153Z,7.50
2017-11-10T04:29:03.706Z,7.50
2017-11-10T04:31:31.224Z,7.50
2017-11-10T04:33:58.724Z,7.50
2017-11-10T04:36:26.284Z,7.50
2017-11-10T04:38:53.803Z,7.60
2017-11-10T04:41:21.348Z,7.50
2017-11-10T04:43:48.932Z,7.50
2017-11-10T04:46:16.552Z,7.60
2017-11-10T04:48:44.136Z,7.60
2017-11-10T04:51:12.433Z,7.70
2017-11-10T04:53:40.019Z,7.70
2017-11-10T04:56:07.556Z,7.70
2017-11-10T04:58:35.113Z,7.70
2017-11-10T05:01:02.640Z,7.70
2017-11-10T05:03:30.157Z,7.60
2017-11-10T05:05:57.704Z,7.60
2017-11-10T05:08:25.278Z,7.50
2017-11-10T05:10:52.805Z,7.50
2017-11-10T05:13:20.384Z,7.60
2017-11-10T05:15:47.906Z,7.60
2017-11-10T05:18:15.431Z,7.60
2017-11-10T05:20:42.988Z,7.70
2017-11-10T05:23:10.542Z,7.70
2017-11-10T05:25:38.133Z,7.70
2017-11-10T05:28:05.669Z,7.70
2017-11-10T05:30:33.272Z,7.70
2017-11-10T05:33:00.796Z,7.70
2017-11-10T05:35:28.353Z,7.80
2017-11-10T05:37:55.917Z,7.80
2017-11-10T05:40:24.878Z,7.80
2017-11-10T05:42:53.268Z,7.70
2017-11-10T05:45:22.525Z,7.70
2017-11-10T05:47:52.637Z,7.80
2017-11-10T05:50:20.226Z,7.80
2017-11-10T05:52:47.803Z,7.80
2017-11-10T05:55:17.700Z,7.80
2017-11-10T05:57:45.257Z,7.80
2017-11-10T06:00:15.444Z,7.80
2017-11-10T06:02:43.345Z,7.70
2017-11-10T06:05:12.665Z,7.90
2017-11-10T06:07:40.449Z,7.80
2017-11-10T06:10:08.853Z,7.90
2017-11-10T06:12:36.404Z,7.90
2017-11-10T06:15:04.188Z,7.80
2017-11-10T06:17:35.388Z,7.90
2017-11-10T06:20:05.606Z,7.90
2017-11-10T06:22:33.216Z,7.80
2017-11-10T06:25:00.807Z,7.80
2017-11-10T06:27:28.818Z,7.90
2017-11-10T06:29:56.445Z,7.90
2017-11-10T06:32:23.992Z,8.00
2017-11-10T06:34:52.359Z,8.00
2017-11-10T06:37:19.907Z,8.00
2017-11-10T06:39:47.531Z,8.00
2017-11-10T06:42:15.101Z,8.00
2017-11-10T06:44:42.657Z,8.00
2017-11-10T06:47:10.180Z,8.10
2017-11-10T06:49:37.695Z,8.10
2017-11-10T06:52:05.425Z,8.20
2017-11-10T06:54:33.086Z,8.20
2017-11-10T06:57:00.637Z,8.20
2017-11-10T06:59:30.234Z,8.20
2017-11-10T07:01:57.955Z,8.10
2017-11-10T07:04:25.471Z,8.10
2017-11-10T07:06:53.015Z,8.20
2017-11-10T07:09:20.589Z,8.20
2017-11-10T07:11:48.140Z,8.20
2017-11-10T07:14:15.668Z,8.30
2017-11-10T07:16:43.996Z,8.30
2017-11-10T07:19:11.540Z,8.30
2017-11-10T07:21:39.053Z,8.30
2017-11-10T07:24:06.610Z,8.40
2017-11-10T07:26:34.122Z,8.40
2017-11-10T07:29:01.650Z,8.40
2017-11-10T07:31:30.005Z,8.50
2017-11-10T07:33:57.527Z,8.50
2017-11-10T07:36:25.046Z,8.60
2017-11-10T07:38:52.582Z,8.50
2017-11-10T07:41:20.120Z,8.40
2017-11-10T07:43:47.681Z,8.40
2017-11-10T07:46:15.223Z,8.40
2017-11-10T07:48:42.820Z,8.30
2017-11-10T07:51:10.355Z,8.30
2017-11-10T07:53:37.934Z,8.40
2017-11-10T07:56:05.607Z,8.40
2017-11-10T07:58:33.216Z,8.40
2017-11-10T08:01:01.603Z,8.40
2017-11-10T08:03:29.156Z,8.40
2017-11-10T08:05:56.729Z,8.40
2017-11-10T08:08:24.309Z,8.40
2017-11-10T08:10:51.904Z,8.40
2017-11-10T08:13:19.426Z,8.30
2017-11-10T08:15:46.958Z,8.30
2017-11-10T08:18:14.476Z,8.30
2017-11-10T08:20:41.988Z,8.30
2017-11-10T08:23:09.563Z,8.30
2017-11-10T08:25:37.101Z,8.40
2017-11-10T08:28:05.065Z,8.30
2017-11-10T08:30:33.092Z,8.40
2017-11-10T08:33:00.626Z,8.50
2017-11-10T08:35:28.292Z,8.50
2017-11-10T08:37:55.933Z,8.50
2017-11-10T08:40:23.482Z,8.50
2017-11-10T08:42:51.019Z,8.60
2017-11-10T08:45:18.539Z,8.70
2017-11-10T08:47:46.039Z,8.70
2017-11-10T08:50:13.594Z,8.60
2017-11-10T08:52:41.226Z,8.70
2017-11-10T08:55:08.800Z,8.70
2017-11-10T08:57:36.330Z,8.70
2017-11-10T09:00:03.865Z,8.60
2017-11-10T09:02:31.411Z,8.70
2017-11-10T09:04:59.724Z,8.60
2017-11-10T09:07:27.271Z,8.60
2017-11-10T09:09:54.847Z,8.60
2017-11-10T09:12:22.365Z,8.70
2017-11-10T09:14:49.892Z,8.70
2017-11-10T09:17:17.453Z,8.70
2017-11-10T09:19:44.985Z,8.70
2017-11-10T09:22:12.504Z,8.60
2017-11-10T09:24:40.032Z,8.60
2017-11-10T09:27:10.957Z,8.60
2017-11-10T09:29:48.389Z,8.60
2017-11-10T09:32:22.473Z,8.40
2017-11-10T09:35:06.673Z,8.40
2017-11-10T09:37:37.749Z,8.40
2017-11-10T09:40:13.224Z,8.50
2017-11-10T09:42:50.769Z,8.50
2017-11-10T09:45:24.012Z,8.60
2017-11-10T09:47:57.139Z,8.60
2017-11-10T09:50:30.457Z,8.60
2017-11-10T09:52:58.178Z,8.60
2017-11-10T09:55:31.518Z,8.50
2017-11-10T09:58:04.841Z,8.50
2017-11-10T10:00:49.051Z,8.50
2017-11-10T10:03:22.168Z,8.50
2017-11-10T10:06:10.133Z,8.50
2017-11-10T10:08:46.095Z,8.50
2017-11-10T10:11:28.338Z,8.50
2017-11-10T10:14:11.689Z,8.50
2017-11-10T10:16:44.009Z,8.40
2017-11-10T10:19:28.013Z,8.50
2017-11-10T10:22:01.237Z,8.50
2017-11-10T10:24:28.777Z,8.50
2017-11-10T10:26:56.369Z,8.50
2017-11-10T10:29:24.696Z,8.50
2017-11-10T10:31:52.371Z,8.50
2017-11-10T10:34:19.934Z,8.60
2017-11-10T10:36:47.451Z,8.60
2017-11-10T10:39:14.997Z,8.70
2017-11-10T10:41:43.401Z,8.90
2017-11-10T10:44:11.457Z,8.90
2017-11-10T10:46:39.792Z,8.90
2017-11-10T10:49:07.414Z,8.90
2017-11-10T10:51:34.960Z,9.00
2017-11-10T10:54:09.031Z,9.10
2017-11-10T10:56:36.568Z,9.10
2017-11-10T10:59:04.128Z,8.90
2017-11-10T11:01:31.650Z,8.90
2017-11-10T11:04:00.013Z,9.00
2017-11-10T11:06:27.598Z,8.90
2017-11-10T11:08:55.965Z,9.10
2017-11-10T11:11:23.508Z,9.10
2017-11-10T11:13:51.997Z,9.10
2017-11-10T11:16:20.354Z,9.30
2017-11-10T11:18:48.256Z,9.30
2017-11-10T11:21:15.798Z,9.40
2017-11-10T11:23:43.413Z,9.40
2017-11-10T11:26:11.040Z,9.40
2017-11-10T11:28:38.553Z,9.40
2017-11-10T11:31:06.798Z,9.40
2017-11-10T11:33:34.422Z,9.40
2017-11-10T11:36:01.955Z,9.40
2017-11-10T11:38:30.310Z,9.30
2017-11-10T11:40:57.842Z,9.30
2017-11-10T11:43:25.377Z,9.30
2017-11-10T11:45:53.718Z,9.30
2017-11-10T11:48:21.368Z,9.30
2017-11-10T11:50:49.064Z,9.30
2017-11-10T11:53:16.616Z,9.40
2017-11-10T11:55:44.153Z,9.30
2017-11-10T11:58:11.724Z,9.40
2017-11-10T12:00:39.309Z,9.40
2017-11-10T12:03:06.888Z,9.40
2017-11-10T12:05:35.184Z,9.30
2017-11-10T12:08:02.727Z,9.30
2017-11-10T12:10:30.297Z,9.30
2017-11-10T12:12:58.617Z,9.20
2017-11-10T12:15:26.137Z,9.20
2017-11-10T12:17:53.669Z,9.20
2017-11-10T12:20:21.285Z,9.10
2017-11-10T12:22:48.842Z,9.10
2017-11-10T12:25:16.357Z,9.00
2017-11-10T12:27:43.941Z,9.00
2017-11-10T12:30:11.531Z,9.10
2017-11-10T12:32:39.045Z,8.90
2017-11-10T12:35:07.353Z,8.80
2017-11-10T12:37:34.883Z,8.80
2017-11-10T12:40:02.438Z,8.80
2017-11-10T12:42:30.719Z,8.60
2017-11-10T12:44:59.002Z,8.50
2017-11-10T12:47:27.267Z,8.40
2017-11-10T12:49:55.566Z,8.40
2017-11-10T12:52:23.117Z,8.40
2017-11-10T12:54:50.637Z,8.40
2017-11-10T12:57:18.196Z,8.40
2017-11-10T12:59:45.709Z,8.50
2017-11-10T13:02:13.242Z,8.40
2017-11-10T13:04:41.537Z,8.30
2017-11-10T13:07:09.918Z,8.40
2017-11-10T13:09:37.475Z,8.40
2017-11-10T13:12:05.804Z,8.20
2017-11-10T13:14:33.331Z,8.20
2017-11-10T13:17:00.908Z,8.40
2017-11-10T13:19:28.460Z,8.20
2017-11-10T13:21:56.014Z,8.30
2017-11-10T13:24:23.541Z,8.30
2017-11-10T13:26:51.860Z,8.40
2017-11-10T13:29:19.447Z,8.30
2017-11-10T13:31:47.003Z,8.40
2017-11-10T13:34:14.844Z,8.40
2017-11-10T13:36:42.343Z,8.40
2017-11-10T13:39:09.931Z,8.40
2017-11-10T13:41:37.459Z,8.40
2017-11-10T13:44:05.306Z,8.50
2017-11-10T13:46:32.885Z,8.50
2017-11-10T13:49:00.425Z,8.50
2017-11-10T13:51:27.940Z,8.60
2017-11-10T13:53:55.464Z,8.50
2017-11-10T13:56:23.010Z,8.50
2017-11-10T13:58:50.544Z,8.50
2017-11-10T14:01:18.084Z,8.50
2017-11-10T14:03:45.841Z,8.50
2017-11-10T14:06:13.702Z,8.50
2017-11-10T14:08:42.318Z,8.50
2017-11-10T14:11:09.437Z,8.50
2017-11-10T14:13:36.909Z,8.40
2017-11-10T14:16:05.012Z,8.40
2017-11-10T14:18:32.367Z,8.40
2017-11-10T14:20:59.489Z,8.40
2017-11-10T14:23:27.391Z,8.50
2017-11-10T14:25:54.490Z,8.50
2017-11-10T14:28:22.421Z,8.40
2017-11-10T14:30:49.556Z,8.40
2017-11-10T14:33:16.689Z,8.50
2017-11-10T14:35:43.906Z,8.40
2017-11-10T14:38:11.236Z,8.40
2017-11-10T14:40:38.615Z,8.50
2017-11-10T14:43:09.177Z,8.40
2017-11-10T14:52:20.989Z,8.20
2017-11-10T14:54:48.851Z,8.20
2017-11-10T14:57:15.972Z,8.20
2017-11-10T14:59:43.072Z,8.20
2017-11-10T15:02:10.137Z,8.20
2017-11-10T15:04:37.269Z,8.20
2017-11-10T15:07:05.117Z,8.20
2017-11-10T15:09:32.989Z,8.10
2017-11-10T15:12:00.183Z,8.10
2017-11-10T15:14:27.298Z,8.10
2017-11-10T15:16:55.281Z,8.10
2017-11-10T15:19:22.344Z,8.20
2017-11-10T15:21:49.409Z,8.20
2017-11-10T15:24:16.467Z,8.10
2017-11-10T15:26:43.566Z,8.10
2017-11-10T15:29:11.417Z,8.10
2017-11-10T15:31:38.496Z,8.10
2017-11-10T15:34:05.553Z,8.10
2017-11-10T15:36:32.679Z,8.20
2017-11-10T15:39:00.507Z,8.20
2017-11-10T15:41:27.637Z,8.10
2017-11-10T15:43:55.008Z,8.20
2017-11-10T15:46:22.111Z,8.10
2017-11-10T15:48:49.976Z,8.00
2017-11-10T15:51:17.121Z,8.00
2017-11-10T15:53:45.082Z,7.90
2017-11-10T15:56:12.157Z,7.90
2017-11-10T15:58:39.250Z,7.90
2017-11-10T16:01:07.129Z,7.90
2017-11-10T16:03:34.204Z,7.90
2017-11-10T16:06:02.063Z,7.90
2017-11-10T16:08:29.892Z,7.90
2017-11-10T16:10:56.960Z,7.90
2017-11-10T16:13:24.195Z,8.00
2017-11-10T16:15:51.416Z,8.00
2017-11-10T16:18:18.479Z,8.00
2017-11-10T16:20:45.573Z,8.00
2017-11-10T16:23:12.645Z,8.00
2017-11-10T16:25:40.498Z,8.00
2017-11-10T16:28:08.334Z,7.90
2017-11-10T16:30:35.414Z,7.90
2017-11-10T16:33:03.298Z,7.90
2017-11-10T16:35:30.384Z,7.90
2017-11-10T16:37:57.445Z,7.90
2017-11-10T16:40:24.510Z,8.00
2017-11-10T16:42:51.646Z,7.90
2017-11-10T16:45:18.808Z,8.00
2017-11-10T16:47:45.907Z,8.00
2017-11-10T16:50:13.062Z,8.10
2017-11-10T16:52:40.161Z,8.10
2017-11-10T16:55:07.235Z,8.10
2017-11-10T16:57:34.407Z,8.10
2017-11-10T17:00:01.625Z,8.10
2017-11-10T17:02:30.589Z,8.10
2017-11-10T17:04:57.670Z,8.00
2017-11-10T17:07:24.755Z,8.10
2017-11-10T17:09:53.040Z,8.20
2017-11-10T17:12:20.286Z,8.20
2017-11-10T17:14:47.411Z,8.20
2017-11-10T17:17:14.488Z,8.10
2017-11-10T17:19:41.569Z,8.10
2017-11-10T17:22:08.759Z,8.00
2017-11-10T17:24:35.852Z,7.90
2017-11-10T17:27:02.959Z,7.90
2017-11-10T17:29:30.083Z,7.80
2017-11-10T17:31:57.205Z,7.80
2017-11-10T17:34:24.356Z,7.70
2017-11-10T17:36:51.690Z,7.70
2017-11-10T17:39:18.895Z,7.70
2017-11-10T17:41:46.751Z,7.70
2017-11-10T17:44:13.827Z,7.70
2017-11-10T17:46:41.673Z,7.60
2017-11-10T17:49:08.758Z,7.60
2017-11-10T17:51:36.588Z,7.60
2017-11-10T17:54:03.651Z,7.60
2017-11-10T17:56:32.343Z,7.60
2017-11-10T17:59:00.282Z,7.70
2017-11-10T18:01:27.401Z,7.60
2017-11-10T18:03:54.643Z,7.70
2017-11-10T18:06:21.727Z,7.70
2017-11-10T18:08:48.971Z,7.70
2017-11-10T18:11:16.106Z,7.60
2017-11-10T18:13:43.276Z,7.60
2017-11-10T18:16:10.343Z,7.60
2017-11-10T18:18:37.483Z,7.60
2017-11-10T18:21:04.560Z,7.50
2017-11-10T18:23:31.650Z,7.50
2017-11-10T18:25:59.229Z,7.50
2017-11-10T18:28:26.291Z,7.50
2017-11-10T18:30:53.357Z,7.50
2017-11-10T18:33:20.472Z,7.50
2017-11-10T18:35:47.599Z,7.50
2017-11-10T18:38:14.711Z,7.50
2017-11-10T18:40:41.791Z,7.50
2017-11-10T18:43:09.358Z,7.50
2017-11-10T18:45:36.439Z,7.50
2017-11-10T18:48:03.577Z,7.50
2017-11-10T18:50:30.689Z,7.50
2017-11-10T18:53:03.637Z,7.50
2017-11-10T18:55:32.622Z,7.50
2017-11-10T18:57:59.944Z,7.50
2017-11-10T19:00:27.080Z,7.30
2017-11-10T19:02:54.285Z,7.30
2017-11-10T19:05:21.465Z,7.30
2017-11-10T19:07:48.577Z,7.30
2017-11-10T19:10:15.663Z,7.30
2017-11-10T19:12:43.556Z,7.20
2017-11-10T19:15:10.655Z,7.20
2017-11-10T19:17:37.830Z,7.30
2017-11-10T19:20:05.673Z,7.30
2017-11-10T19:22:33.404Z,7.30
2017-11-10T19:25:00.601Z,7.30
2017-11-10T19:27:28.499Z,7.40
2017-11-10T19:29:55.607Z,7.40
2017-11-10T19:32:22.770Z,7.50
2017-11-10T19:34:49.991Z,7.40
2017-11-10T19:37:17.144Z,7.30
2017-11-10T19:39:44.414Z,7.30
2017-11-10T19:42:11.614Z,7.20
2017-11-10T19:44:38.763Z,7.20
2017-11-10T19:47:05.870Z,7.20
2017-11-10T19:49:32.996Z,7.20
2017-11-10T19:52:00.237Z,7.20
2017-11-10T19:54:27.355Z,7.10
2017-11-10T19:56:55.388Z,7.00
2017-11-10T19:59:22.492Z,7.10
2017-11-10T20:01:49.639Z,7.00
2017-11-10T20:04:16.730Z,7.10
2017-11-10T20:06:43.836Z,7.00
2017-11-10T20:09:11.069Z,7.00
2017-11-10T20:11:38.153Z,7.00
2017-11-10T20:14:05.262Z,7.00
2017-11-10T20:16:33.131Z,7.00
2017-11-10T20:19:01.005Z,7.00
2017-11-10T20:21:29.174Z,7.00
2017-11-10T20:23:56.258Z,7.00
2017-11-10T20:26:23.349Z,6.90
2017-11-10T20:28:50.453Z,6.90
2017-11-10T20:31:17.575Z,7.00
2017-11-10T20:33:45.439Z,6.90
2017-11-10T20:36:12.645Z,6.90
2017-11-10T20:38:39.741Z,6.90
2017-11-10T20:41:06.854Z,6.90
2017-11-10T20:43:33.934Z,6.90
2017-11-10T20:46:01.773Z,6.80
2017-11-10T20:48:29.018Z,6.80
2017-11-10T20:50:57.296Z,6.80
2017-11-10T20:53:24.359Z,6.80
2017-11-10T20:55:51.888Z,6.80
2017-11-10T20:58:19.432Z,6.80
2017-11-10T21:00:46.996Z,6.80
2017-11-10T21:03:14.682Z,6.90
2017-11-10T21:05:42.209Z,7.00
2017-11-10T21:08:10.053Z,7.00
2017-11-10T21:10:38.352Z,6.90
2017-11-10T21:13:05.897Z,7.00
2017-11-10T21:15:34.168Z,7.00
2017-11-10T21:18:02.477Z,6.90
2017-11-10T21:20:30.006Z,6.90
2017-11-10T21:22:57.619Z,6.80
2017-11-10T21:25:25.160Z,7.00
2017-11-10T21:27:52.690Z,7.00
2017-11-10T21:30:20.345Z,7.10
2017-11-10T21:32:47.853Z,7.10
2017-11-10T21:35:15.506Z,7.10
2017-11-10T21:37:43.146Z,7.20
2017-11-10T21:40:10.712Z,7.00
2017-11-10T21:42:38.235Z,7.00
2017-11-10T21:45:05.828Z,7.00
2017-11-10T21:47:33.491Z,6.90
2017-11-10T21:50:01.043Z,7.10
2017-11-10T21:52:29.381Z,7.20
2017-11-10T21:54:57.116Z,7.20
2017-11-10T21:57:24.824Z,7.30
2017-11-10T21:59:52.387Z,7.20
2017-11-10T22:02:19.916Z,7.30
2017-11-10T22:04:47.461Z,7.20
2017-11-10T22:07:15.246Z,7.20
2017-11-10T22:09:42.799Z,7.30
2017-11-10T22:12:10.546Z,7.20
2017-11-10T22:14:38.087Z,7.20
2017-11-10T22:17:05.715Z,7.20
2017-11-10T22:19:33.312Z,7.20
2017-11-10T22:22:00.841Z,7.20
2017-11-10T22:24:29.176Z,7.20
2017-11-10T22:26:56.756Z,7.10
2017-11-10T22:29:24.388Z,7.10
2017-11-10T22:31:51.917Z,7.10
2017-11-10T22:34:20.273Z,7.10
2017-11-10T22:36:47.789Z,7.10
2017-11-10T22:39:15.378Z,7.30
2017-11-10T22:41:42.902Z,7.20
2017-11-10T22:44:10.512Z,7.20
2017-11-10T22:46:38.061Z,6.90
2017-11-10T22:49:05.747Z,7.00
2017-11-10T22:51:33.321Z,6.90
2017-11-10T22:54:01.934Z,6.90
2017-11-10T22:56:29.566Z,6.90
2017-11-10T22:58:57.931Z,6.80
2017-11-10T23:01:25.536Z,6.80
2017-11-10T23:03:53.141Z,6.90
2017-11-10T23:06:20.676Z,6.90
2017-11-10T23:08:48.198Z,6.90
2017-11-10T23:11:15.814Z,6.90
2017-11-10T23:13:43.554Z,6.90
2017-11-10T23:16:11.092Z,6.90
2017-11-10T23:18:38.711Z,6.90
2017-11-10T23:21:06.255Z,6.80
2017-11-10T23:23:33.795Z,6.80
2017-11-10T23:26:01.430Z,6.80
2017-11-10T23:28:29.054Z,6.70
2017-11-10T23:30:56.573Z,6.70
2017-11-10T23:33:24.085Z,6.80
2017-11-10T23:35:52.380Z,6.90
2017-11-10T23:38:20.647Z,7.00
2017-11-10T23:40:49.048Z,6.90
2017-11-10T23:43:16.701Z,6.80
2017-11-10T23:45:44.268Z,6.80
2017-11-10T23:48:11.805Z,6.80
2017-11-10T23:50:39.452Z,6.80
2017-11-10T23:53:06.976Z,6.80
2017-11-10T23:55:34.502Z,6.80
2017-11-10T23:58:02.764Z,6.70
